createdAt,value
2022-09-17T00:01:53.450Z,4.50
2022-09-17T00:04:55.100Z,4.40
2022-09-17T00:07:57.246Z,4.30
2022-09-17T00:11:26.126Z,4.00
2022-09-17T00:14:27.576Z,3.60
2022-09-17T00:17:29.115Z,3.80
2022-09-17T00:20:31.106Z,3.90
2022-09-17T00:23:32.618Z,4.10
2022-09-17T00:26:34.535Z,3.80
2022-09-17T00:29:36.228Z,4.10
2022-09-17T00:32:37.723Z,4.30
2022-09-17T00:35:39.599Z,4.50
2022-09-17T00:38:41.266Z,4.10
2022-09-17T00:41:44.066Z,4.50
2022-09-17T00:44:50.293Z,4.70
2022-09-17T00:48:02.656Z,5.50
2022-09-17T00:51:08.425Z,5.20
2022-09-17T00:54:11.197Z,5.70
2022-09-17T00:57:12.980Z,5.40
2022-09-17T01:00:15.967Z,5.70
2022-09-17T01:03:17.694Z,5.40
2022-09-17T01:06:33.650Z,5.70
2022-09-17T01:09:53.870Z,4.70
2022-09-17T01:13:01.417Z,4.80
2022-09-17T01:16:25.751Z,4.90
2022-09-17T01:19:33.099Z,4.90
2022-09-17T01:22:52.796Z,4.90
2022-09-17T01:26:12.845Z,5.00
2022-09-17T01:29:45.087Z,4.40
2022-09-17T01:32:55.882Z,4.10
2022-09-17T01:36:09.244Z,3.90
2022-09-17T01:39:29.505Z,3.60
2022-09-17T01:42:34.112Z,3.40
2022-09-17T01:45:42.680Z,3.60
2022-09-17T01:48:48.821Z,3.70
2022-09-17T01:51:51.943Z,3.50
2022-09-17T01:54:57.810Z,3.60
2022-09-17T01:58:06.865Z,4.10
2022-09-17T02:01:11.676Z,4.10
2022-09-17T02:04:24.850Z,3.70
2022-09-17T02:07:30.380Z,3.90
2022-09-17T02:10:37.778Z,3.90
2022-09-17T02:13:45.175Z,3.60
2022-09-17T02:16:54.699Z,3.80
2022-09-17T02:19:56.281Z,3.40
2022-09-17T02:23:05.528Z,3.60
2022-09-17T02:26:11.426Z,4.10
2022-09-17T02:29:27.004Z,3.60
2022-09-17T02:32:28.580Z,3.90
2022-09-17T02:35:31.460Z,4.10
2022-09-17T02:38:33.002Z,4.20
2022-09-17T02:41:53.688Z,4.40
2022-09-17T02:45:04.412Z,5.10
2022-09-17T02:48:16.440Z,4.60
2022-09-17T02:51:33.475Z,4.50
2022-09-17T02:54:43.155Z,4.50
2022-09-17T02:58:18.166Z,4.90
2022-09-17T03:01:40.320Z,4.60
2022-09-17T03:04:41.973Z,5.10
2022-09-17T03:07:43.559Z,4.60
2022-09-17T03:10:48.290Z,4.90
2022-09-17T03:13:49.911Z,4.60
2022-09-17T03:16:51.358Z,5.50
2022-09-17T03:19:53.053Z,4.80
2022-09-17T03:22:54.570Z,5.30
2022-09-17T03:25:56.083Z,4.90
2022-09-17T03:28:58.286Z,5.40
2022-09-17T03:35:01.946Z,4.30
2022-09-17T03:38:03.712Z,4.80
2022-09-17T03:41:06.936Z,4.90
2022-09-17T03:44:09.885Z,4.20
2022-09-17T03:47:11.921Z,4.20
2022-09-17T03:50:13.424Z,4.50
2022-09-17T03:53:15.704Z,4.40
2022-09-17T03:56:17.366Z,4.60
2022-09-17T03:59:19.098Z,4.00
2022-09-17T04:02:20.733Z,5.00
2022-09-17T04:05:23.003Z,4.80
2022-09-17T04:11:26.585Z,4.30
2022-09-17T04:14:28.197Z,5.40
2022-09-17T04:17:29.700Z,5.20
2022-09-17T04:20:31.266Z,5.10
2022-09-17T04:23:32.728Z,5.20
2022-09-17T04:26:34.219Z,5.30
2022-09-17T04:29:35.730Z,5.50
2022-09-17T04:32:37.529Z,4.90
2022-09-17T04:35:39.223Z,5.90
2022-09-17T04:38:40.849Z,5.80
2022-09-17T04:41:42.604Z,5.80
2022-09-17T04:44:44.063Z,5.40
2022-09-17T04:47:45.611Z,6.20
2022-09-17T04:50:47.076Z,6.20
2022-09-17T04:53:48.560Z,6.10
2022-09-17T04:56:50.595Z,5.90
2022-09-17T04:59:52.197Z,5.80
2022-09-17T05:02:55.139Z,5.20
2022-09-17T05:05:56.989Z,5.30
2022-09-17T05:08:58.688Z,5.20
2022-09-17T05:12:00.200Z,6.00
2022-09-17T05:15:01.788Z,6.00
2022-09-17T05:18:03.349Z,6.00
2022-09-17T05:21:05.080Z,5.60
2022-09-17T05:24:06.830Z,4.90
2022-09-17T05:27:08.366Z,4.60
2022-09-17T05:30:11.142Z,5.70
2022-09-17T05:33:12.696Z,6.80
2022-09-17T05:36:14.218Z,7.90
2022-09-17T05:39:15.744Z,7.10
2022-09-17T05:42:17.474Z,5.90
2022-09-17T05:45:18.972Z,5.30
2022-09-17T05:48:20.589Z,4.90
2022-09-17T05:51:22.201Z,4.80
2022-09-17T05:54:23.684Z,4.60
2022-09-17T05:57:28.412Z,4.90
2022-09-17T06:00:30.665Z,4.70
2022-09-17T06:03:32.499Z,4.90
2022-09-17T06:06:35.951Z,4.60
2022-09-17T06:09:37.919Z,4.80
2022-09-17T06:12:39.475Z,4.80
2022-09-17T06:15:40.975Z,4.80
2022-09-17T06:18:42.494Z,4.60
2022-09-17T06:21:44.033Z,4.60
2022-09-17T06:24:45.739Z,4.70
2022-09-17T06:27:47.191Z,4.80
2022-09-17T06:30:48.929Z,4.70
2022-09-17T06:33:50.601Z,4.90
2022-09-17T06:36:52.075Z,5.30
2022-09-17T06:39:53.978Z,5.70
2022-09-17T06:42:59.145Z,4.90
2022-09-17T06:46:05.432Z,5.10
2022-09-17T06:49:06.994Z,4.90
2022-09-17T06:52:08.917Z,4.70
2022-09-17T06:55:10.361Z,4.90
2022-09-17T06:58:11.908Z,5.20
2022-09-17T07:01:14.056Z,5.30
2022-09-17T07:07:19.704Z,4.70
2022-09-17T07:10:22.814Z,4.70
2022-09-17T07:13:25.403Z,4.30
2022-09-17T07:16:27.433Z,4.80
2022-09-17T07:19:28.984Z,4.50
2022-09-17T07:22:30.616Z,4.30
2022-09-17T07:25:32.313Z,4.60
2022-09-17T07:28:34.291Z,4.40
2022-09-17T07:31:36.265Z,4.50
2022-09-17T07:34:37.866Z,4.10
2022-09-17T07:37:39.920Z,4.30
2022-09-17T07:40:41.439Z,4.40
2022-09-17T07:43:43.290Z,3.80
2022-09-17T07:46:45.040Z,3.90
2022-09-17T07:49:46.671Z,3.70
2022-09-17T07:52:48.581Z,3.60
2022-09-17T07:55:55.318Z,3.50
2022-09-17T07:58:57.292Z,3.80
2022-09-17T08:01:59.526Z,3.10
2022-09-17T08:05:01.342Z,3.40
2022-09-17T08:08:03.196Z,3.20
2022-09-17T08:11:07.883Z,3.10
2022-09-17T08:14:15.189Z,3.70
2022-09-17T08:17:16.872Z,3.60
2022-09-17T08:20:19.474Z,3.40
2022-09-17T08:23:21.190Z,3.50
2022-09-17T08:26:24.287Z,3.90
2022-09-17T08:29:25.862Z,3.50
2022-09-17T08:32:29.232Z,3.50
2022-09-17T08:35:30.980Z,3.50
2022-09-17T08:38:39.412Z,3.50
2022-09-17T08:41:53.050Z,3.90
2022-09-17T08:45:00.679Z,3.60
2022-09-17T08:48:04.558Z,3.60
2022-09-17T08:51:29.700Z,3.70
2022-09-17T08:54:56.707Z,3.50
2022-09-17T08:58:18.865Z,3.70
2022-09-17T09:01:23.801Z,3.30
2022-09-17T09:04:47.757Z,3.40
2022-09-17T09:07:54.547Z,3.60
2022-09-17T09:11:00.368Z,3.90
2022-09-17T09:14:24.000Z,3.60
2022-09-17T09:17:43.242Z,3.30
2022-09-17T09:20:55.079Z,3.80
2022-09-17T09:24:09.971Z,3.70
2022-09-17T09:27:18.767Z,3.80
2022-09-17T09:30:23.100Z,3.60
2022-09-17T09:33:30.415Z,3.60
2022-09-17T09:36:33.028Z,3.90
2022-09-17T09:39:41.277Z,4.00
2022-09-17T09:42:45.681Z,4.10
2022-09-17T09:46:00.781Z,3.70
2022-09-17T09:49:13.332Z,3.70
2022-09-17T09:52:32.084Z,3.90
2022-09-17T09:55:58.045Z,3.50
2022-09-17T09:59:00.912Z,3.70
2022-09-17T10:02:05.439Z,3.50
2022-09-17T10:05:08.341Z,3.90
2022-09-17T10:08:14.454Z,3.70
2022-09-17T10:11:22.331Z,3.10
2022-09-17T10:14:26.489Z,3.20
2022-09-17T10:17:29.136Z,2.90
2022-09-17T10:20:31.318Z,2.60
2022-09-17T10:23:37.935Z,2.60
2022-09-17T10:26:39.671Z,2.80
2022-09-17T10:29:46.881Z,2.70
2022-09-17T10:33:20.536Z,2.50
2022-09-17T10:36:38.047Z,2.60
2022-09-17T10:39:44.473Z,2.50
2022-09-17T10:42:47.354Z,2.70
2022-09-17T10:45:59.065Z,2.90
2022-09-17T10:49:10.230Z,2.80
2022-09-17T10:52:14.662Z,2.60
2022-09-17T10:55:36.824Z,2.50
2022-09-17T10:59:00.275Z,2.80
2022-09-17T11:02:24.646Z,2.50
2022-09-17T11:05:40.209Z,2.50
2022-09-17T11:08:50.818Z,2.60
2022-09-17T11:12:13.643Z,2.80
2022-09-17T11:15:21.291Z,2.90
2022-09-17T11:18:50.625Z,2.70
2022-09-17T11:22:50.612Z,2.40
2022-09-17T11:26:00.900Z,2.30
2022-09-17T11:29:08.660Z,3.00
2022-09-17T11:32:38.116Z,3.30
2022-09-17T11:35:55.913Z,3.30
2022-09-17T11:39:07.052Z,2.90
2022-09-17T11:42:17.491Z,2.70
2022-09-17T11:45:26.533Z,3.00
2022-09-17T11:48:47.354Z,2.60
2022-09-17T11:51:56.224Z,3.10
2022-09-17T11:55:45.240Z,3.50
2022-09-17T11:59:11.761Z,3.60
2022-09-17T12:02:21.016Z,3.00
2022-09-17T12:05:54.659Z,3.00
2022-09-17T12:09:05.772Z,2.40
2022-09-17T12:12:47.826Z,2.40
2022-09-17T12:15:53.175Z,2.80
2022-09-17T12:19:11.405Z,2.50
2022-09-17T12:22:20.417Z,2.70
2022-09-17T12:25:25.661Z,2.50
2022-09-17T12:28:38.899Z,2.60
2022-09-17T12:31:52.992Z,2.50
2022-09-17T12:35:20.014Z,2.30
2022-09-17T12:38:46.020Z,2.60
2022-09-17T12:42:12.417Z,2.70
2022-09-17T12:45:13.811Z,2.60
2022-09-17T12:48:43.929Z,2.40
2022-09-17T12:51:59.349Z,2.80
2022-09-17T12:55:48.856Z,2.80
2022-09-17T12:59:15.423Z,5.20
2022-09-17T13:02:40.181Z,2.70
2022-09-17T13:06:14.509Z,2.50
2022-09-17T13:23:59.859Z,2.40
2022-09-17T13:27:05.445Z,2.80
2022-09-17T13:30:11.424Z,2.70
2022-09-17T13:33:50.628Z,2.50
2022-09-17T13:37:15.735Z,2.20
2022-09-17T13:40:27.903Z,3.50
2022-09-17T13:43:30.952Z,30.30
2022-09-17T13:46:36.759Z,36.70
2022-09-17T13:50:02.625Z,16.30
2022-09-17T13:53:21.493Z,6.60
2022-09-17T13:56:38.683Z,5.60
2022-09-17T13:59:54.449Z,3.50
2022-09-17T14:03:28.996Z,4.50
2022-09-17T14:06:34.623Z,3.80
2022-09-17T14:09:56.327Z,2.70
2022-09-17T14:13:23.509Z,4.50
2022-09-17T14:16:29.301Z,9.10
2022-09-17T14:19:46.676Z,6.90
2022-09-17T14:22:57.350Z,3.80
2022-09-17T14:26:05.156Z,3.20
2022-09-17T14:29:13.895Z,2.50
2022-09-17T14:32:21.660Z,2.10
2022-09-17T14:35:33.663Z,3.90
2022-09-17T14:39:04.804Z,2.00
2022-09-17T14:42:16.834Z,3.00
2022-09-17T14:45:33.483Z,2.90
2022-09-17T14:48:37.397Z,3.50
2022-09-17T14:51:40.746Z,2.10
2022-09-17T14:54:44.776Z,2.00
2022-09-17T14:57:55.757Z,1.50
2022-09-17T15:00:59.120Z,1.40
2022-09-17T15:04:20.532Z,1.10
2022-09-17T15:07:23.657Z,1.40
2022-09-17T15:10:27.310Z,1.40
2022-09-17T15:13:40.328Z,1.70
2022-09-17T15:16:55.186Z,1.70
2022-09-17T15:19:58.878Z,2.10
2022-09-17T15:23:13.953Z,2.60
2022-09-17T15:26:22.755Z,2.80
2022-09-17T15:29:29.266Z,2.70
2022-09-17T15:32:36.161Z,3.20
2022-09-17T15:35:39.690Z,3.30
2022-09-17T15:38:42.914Z,3.70
2022-09-17T15:41:56.997Z,3.50
2022-09-17T15:45:19.739Z,3.60
2022-09-17T15:48:39.533Z,3.00
2022-09-17T15:51:42.419Z,3.30
2022-09-17T15:54:45.305Z,3.30
2022-09-17T15:57:48.243Z,3.90
2022-09-17T16:01:15.792Z,4.50
2022-09-17T16:04:22.803Z,4.90
2022-09-17T16:07:30.533Z,5.90
2022-09-17T16:10:33.458Z,6.00
2022-09-17T16:13:36.323Z,5.70
2022-09-17T16:16:39.509Z,5.50
2022-09-17T16:19:42.594Z,5.70
2022-09-17T16:22:48.375Z,5.50
2022-09-17T16:25:52.234Z,5.60
2022-09-17T16:28:59.989Z,5.90
2022-09-17T16:32:03.009Z,6.50
2022-09-17T16:35:07.058Z,6.10
2022-09-17T16:38:11.910Z,7.50
2022-09-17T16:41:14.941Z,7.70
2022-09-17T16:44:18.314Z,8.00
2022-09-17T16:47:21.930Z,8.00
2022-09-17T16:50:25.418Z,7.50
2022-09-17T16:53:28.327Z,8.20
2022-09-17T16:56:31.920Z,7.50
2022-09-17T16:59:34.825Z,6.90
2022-09-17T17:02:37.790Z,7.40
2022-09-17T17:05:41.441Z,7.20
2022-09-17T17:08:44.373Z,7.20
2022-09-17T17:11:47.235Z,6.90
2022-09-17T17:14:52.304Z,7.00
2022-09-17T17:17:55.161Z,4.80
2022-09-17T17:21:08.851Z,4.20
2022-09-17T17:24:13.757Z,3.70
2022-09-17T17:27:16.587Z,2.80
2022-09-17T17:30:21.213Z,2.80
2022-09-17T17:33:24.767Z,2.40
2022-09-17T17:36:28.061Z,2.60
2022-09-17T17:39:31.093Z,2.70
2022-09-17T17:42:38.153Z,2.80
2022-09-17T17:45:41.387Z,2.50
2022-09-17T17:48:44.389Z,3.00
2022-09-17T17:51:48.773Z,3.50
2022-09-17T17:54:51.777Z,3.80
2022-09-17T17:58:00.889Z,4.00
2022-09-17T18:01:16.199Z,3.90
2022-09-17T18:04:19.930Z,3.20
2022-09-17T18:07:22.846Z,3.90
2022-09-17T18:10:26.254Z,3.70
2022-09-17T18:13:29.420Z,4.20
2022-09-17T18:16:32.817Z,3.90
2022-09-17T18:19:36.746Z,4.30
2022-09-17T18:22:40.046Z,5.00
2022-09-17T18:25:51.864Z,5.40
2022-09-17T18:28:56.008Z,4.80
2022-09-17T18:31:58.900Z,4.80
2022-09-17T18:35:02.308Z,4.20
2022-09-17T18:38:08.895Z,4.10
2022-09-17T18:41:14.037Z,4.10
2022-09-17T18:44:22.104Z,3.90
2022-09-17T18:47:30.723Z,3.80
2022-09-17T18:50:35.474Z,3.70
2022-09-17T18:53:39.298Z,4.10
2022-09-17T18:56:44.501Z,4.40
2022-09-17T18:59:48.469Z,4.10
2022-09-17T19:02:51.841Z,4.20
2022-09-17T19:06:02.027Z,4.00
2022-09-17T19:09:06.542Z,3.80
2022-09-17T19:12:10.263Z,3.80
2022-09-17T19:15:13.525Z,3.60
2022-09-17T19:18:17.673Z,3.50
2022-09-17T19:21:21.926Z,3.40
2022-09-17T19:24:25.878Z,4.30
2022-09-17T19:27:31.249Z,3.80
2022-09-17T19:30:36.971Z,3.40
2022-09-17T19:33:41.861Z,3.60
2022-09-17T19:36:45.482Z,3.20
2022-09-17T19:39:49.135Z,3.30
2022-09-17T19:42:54.660Z,3.20
2022-09-17T19:46:05.480Z,2.80
2022-09-17T19:49:10.151Z,2.90
2022-09-17T19:52:14.278Z,2.50
2022-09-17T19:55:17.555Z,2.60
2022-09-17T19:58:20.936Z,2.00
2022-09-17T20:01:24.045Z,2.30
2022-09-17T20:04:27.136Z,2.10
2022-09-17T20:07:30.701Z,2.50
2022-09-17T20:10:37.854Z,2.70
2022-09-17T20:13:42.350Z,2.70
2022-09-17T20:16:47.263Z,2.80
2022-09-17T20:19:50.439Z,2.70
2022-09-17T20:22:56.074Z,2.90
2022-09-17T20:25:59.098Z,2.40
2022-09-17T20:29:03.182Z,2.20
2022-09-17T20:32:06.365Z,2.10
2022-09-17T20:35:09.709Z,2.20
2022-09-17T20:41:39.063Z,2.20
2022-09-17T20:44:41.992Z,2.00
2022-09-17T20:47:44.960Z,2.10
2022-09-17T20:50:55.780Z,2.00
2022-09-17T20:53:58.758Z,1.90
2022-09-17T20:57:01.886Z,1.80
2022-09-17T21:00:17.650Z,1.80
2022-09-17T21:03:23.009Z,2.10
2022-09-17T21:06:32.863Z,2.10
2022-09-17T21:09:41.859Z,2.10
2022-09-17T21:12:44.901Z,2.30
2022-09-17T21:15:58.816Z,1.70
2022-09-17T21:19:05.440Z,2.00
2022-09-17T21:22:08.328Z,2.10
2022-09-17T21:25:11.209Z,2.30
2022-09-17T21:28:14.053Z,1.90
2022-09-17T21:31:22.815Z,1.80
2022-09-17T21:34:25.929Z,2.20
2022-09-17T21:37:28.816Z,2.20
2022-09-17T21:40:31.753Z,1.80
2022-09-17T21:43:36.101Z,1.80
2022-09-17T21:46:40.838Z,2.20
2022-09-17T21:49:44.501Z,1.90
2022-09-17T21:52:47.467Z,2.00
2022-09-17T21:55:50.348Z,2.10
2022-09-17T21:58:55.698Z,2.10
2022-09-17T22:01:59.047Z,3.40
2022-09-17T22:05:02.205Z,2.30
2022-09-17T22:08:05.056Z,2.60
2022-09-17T22:11:13.845Z,2.00
2022-09-17T22:14:21.559Z,2.30
2022-09-17T22:17:24.411Z,1.90
2022-09-17T22:20:30.065Z,2.10
2022-09-17T22:23:33.007Z,2.00
2022-09-17T22:26:39.075Z,2.40
2022-09-17T22:29:41.863Z,2.20
2022-09-17T22:32:44.740Z,1.80
2022-09-17T22:35:47.623Z,1.90
2022-09-17T22:38:58.604Z,2.20
2022-09-17T22:42:01.829Z,1.90
2022-09-17T22:45:05.074Z,2.00
2022-09-17T22:48:07.996Z,1.90
2022-09-17T22:51:11.682Z,1.90
2022-09-17T22:54:16.815Z,2.00
2022-09-17T22:57:19.733Z,2.20
2022-09-17T23:00:22.766Z,1.90
2022-09-17T23:03:26.959Z,1.60
2022-09-17T23:06:32.206Z,2.20
2022-09-17T23:09:35.095Z,2.10
2022-09-17T23:12:37.934Z,1.90
2022-09-17T23:15:40.906Z,2.30
2022-09-17T23:18:43.828Z,1.90
2022-09-17T23:21:47.075Z,2.00
2022-09-17T23:24:50.082Z,1.80
2022-09-17T23:27:55.555Z,2.10
2022-09-17T23:30:58.440Z,2.10
2022-09-17T23:34:01.868Z,1.90
2022-09-17T23:37:04.701Z,1.90
2022-09-17T23:40:08.253Z,1.70
2022-09-17T23:43:11.209Z,1.90
2022-09-17T23:46:14.775Z,1.70
2022-09-17T23:49:17.917Z,2.10
2022-09-17T23:52:20.737Z,1.90
2022-09-17T23:55:23.689Z,2.00
2022-09-17T23:58:30.938Z,2.10
